sensor_id;sensor_type;location;lat;lon;timestamp;P1;durP1;ratioP1;P2;durP2;ratioP2
53666;SDS011;39568;51.026;5.468;2023-03-26T00:02:14;28.08;;;5.97;;
53666;SDS011;39568;51.026;5.468;2023-03-26T00:04:40;38.28;;;5.55;;
53666;SDS011;39568;51.026;5.468;2023-03-26T00:07:07;32.08;;;3.92;;
53666;SDS011;39568;51.026;5.468;2023-03-26T00:09:35;33.03;;;5.00;;
53666;SDS011;39568;51.026;5.468;2023-03-26T00:12:02;32.25;;;5.25;;
53666;SDS011;39568;51.026;5.468;2023-03-26T00:14:29;31.70;;;4.38;;
53666;SDS011;39568;51.026;5.468;2023-03-26T00:16:56;14.98;;;3.10;;
53666;SDS011;39568;51.026;5.468;2023-03-26T00:19:24;30.88;;;4.82;;
53666;SDS011;39568;51.026;5.468;2023-03-26T00:21:51;30.00;;;4.57;;
53666;SDS011;39568;51.026;5.468;2023-03-26T00:24:18;43.63;;;4.95;;
53666;SDS011;39568;51.026;5.468;2023-03-26T00:26:45;29.95;;;6.07;;
53666;SDS011;39568;51.026;5.468;2023-03-26T00:29:17;36.80;;;6.03;;
53666;SDS011;39568;51.026;5.468;2023-03-26T00:31:43;36.50;;;4.82;;
53666;SDS011;39568;51.026;5.468;2023-03-26T00:34:11;29.13;;;5.10;;
53666;SDS011;39568;51.026;5.468;2023-03-26T00:36:41;42.53;;;5.78;;
53666;SDS011;39568;51.026;5.468;2023-03-26T00:39:08;36.83;;;4.90;;
53666;SDS011;39568;51.026;5.468;2023-03-26T00:41:34;36.80;;;5.57;;
53666;SDS011;39568;51.026;5.468;2023-03-26T00:44:07;38.95;;;5.65;;
53666;SDS011;39568;51.026;5.468;2023-03-26T00:46:34;30.55;;;4.63;;
53666;SDS011;39568;51.026;5.468;2023-03-26T00:49:01;35.75;;;4.30;;
53666;SDS011;39568;51.026;5.468;2023-03-26T00:51:29;39.20;;;5.90;;
53666;SDS011;39568;51.026;5.468;2023-03-26T00:53:58;27.30;;;4.40;;
53666;SDS011;39568;51.026;5.468;2023-03-26T00:56:25;36.80;;;5.18;;
53666;SDS011;39568;51.026;5.468;2023-03-26T00:58:52;20.30;;;3.72;;
53666;SDS011;39568;51.026;5.468;2023-03-26T01:01:20;26.98;;;3.72;;
53666;SDS011;39568;51.026;5.468;2023-03-26T01:03:51;22.33;;;3.60;;
53666;SDS011;39568;51.026;5.468;2023-03-26T01:06:23;41.60;;;3.83;;
53666;SDS011;39568;51.026;5.468;2023-03-26T01:08:52;26.13;;;4.35;;
53666;SDS011;39568;51.026;5.468;2023-03-26T01:11:26;48.65;;;4.50;;
53666;SDS011;39568;51.026;5.468;2023-03-26T01:13:55;43.80;;;5.03;;
53666;SDS011;39568;51.026;5.468;2023-03-26T01:16:26;29.45;;;4.07;;
53666;SDS011;39568;51.026;5.468;2023-03-26T01:18:56;33.60;;;4.50;;
53666;SDS011;39568;51.026;5.468;2023-03-26T01:21:25;27.27;;;3.72;;
53666;SDS011;39568;51.026;5.468;2023-03-26T01:23:56;27.15;;;4.38;;
53666;SDS011;39568;51.026;5.468;2023-03-26T01:26:35;24.75;;;3.33;;
53666;SDS011;39568;51.026;5.468;2023-03-26T01:29:08;24.52;;;3.70;;
53666;SDS011;39568;51.026;5.468;2023-03-26T01:31:50;16.45;;;2.97;;
53666;SDS011;39568;51.026;5.468;2023-03-26T01:34:23;23.98;;;2.80;;
53666;SDS011;39568;51.026;5.468;2023-03-26T01:37:02;28.95;;;3.60;;
53666;SDS011;39568;51.026;5.468;2023-03-26T01:39:34;18.15;;;3.33;;
53666;SDS011;39568;51.026;5.468;2023-03-26T01:42:06;30.40;;;3.95;;
53666;SDS011;39568;51.026;5.468;2023-03-26T01:44:38;31.90;;;3.88;;
53666;SDS011;39568;51.026;5.468;2023-03-26T01:47:13;27.17;;;3.22;;
53666;SDS011;39568;51.026;5.468;2023-03-26T01:49:41;24.48;;;5.55;;
53666;SDS011;39568;51.026;5.468;2023-03-26T01:52:10;10.63;;;2.78;;
53666;SDS011;39568;51.026;5.468;2023-03-26T01:54:41;30.85;;;4.22;;
53666;SDS011;39568;51.026;5.468;2023-03-26T01:57:13;12.73;;;2.67;;
53666;SDS011;39568;51.026;5.468;2023-03-26T02:02:36;12.25;;;2.40;;
53666;SDS011;39568;51.026;5.468;2023-03-26T02:05:11;17.40;;;3.25;;
53666;SDS011;39568;51.026;5.468;2023-03-26T02:07:43;7.18;;;2.13;;
53666;SDS011;39568;51.026;5.468;2023-03-26T02:10:18;14.68;;;2.75;;
53666;SDS011;39568;51.026;5.468;2023-03-26T02:12:49;19.30;;;3.42;;
53666;SDS011;39568;51.026;5.468;2023-03-26T02:15:17;15.68;;;2.65;;
53666;SDS011;39568;51.026;5.468;2023-03-26T02:17:43;17.80;;;2.47;;
53666;SDS011;39568;51.026;5.468;2023-03-26T02:20:11;26.08;;;2.50;;
53666;SDS011;39568;51.026;5.468;2023-03-26T02:22:39;16.33;;;3.05;;
53666;SDS011;39568;51.026;5.468;2023-03-26T02:25:10;21.60;;;4.68;;
53666;SDS011;39568;51.026;5.468;2023-03-26T02:27:40;32.30;;;2.85;;
53666;SDS011;39568;51.026;5.468;2023-03-26T02:30:07;17.30;;;3.28;;
53666;SDS011;39568;51.026;5.468;2023-03-26T02:32:35;22.65;;;3.00;;
53666;SDS011;39568;51.026;5.468;2023-03-26T02:35:05;9.65;;;2.30;;
53666;SDS011;39568;51.026;5.468;2023-03-26T02:37:32;11.32;;;2.33;;
53666;SDS011;39568;51.026;5.468;2023-03-26T02:39:59;18.73;;;2.38;;
53666;SDS011;39568;51.026;5.468;2023-03-26T02:42:26;13.27;;;2.90;;
53666;SDS011;39568;51.026;5.468;2023-03-26T02:44:54;15.70;;;3.50;;
53666;SDS011;39568;51.026;5.468;2023-03-26T02:47:20;20.33;;;4.43;;
53666;SDS011;39568;51.026;5.468;2023-03-26T02:49:47;20.13;;;3.22;;
53666;SDS011;39568;51.026;5.468;2023-03-26T02:52:14;9.57;;;1.80;;
53666;SDS011;39568;51.026;5.468;2023-03-26T02:54:42;22.02;;;3.70;;
53666;SDS011;39568;51.026;5.468;2023-03-26T02:57:09;11.20;;;2.55;;
53666;SDS011;39568;51.026;5.468;2023-03-26T02:59:36;19.00;;;2.63;;
53666;SDS011;39568;51.026;5.468;2023-03-26T03:02:04;24.92;;;4.03;;
53666;SDS011;39568;51.026;5.468;2023-03-26T03:04:31;12.38;;;2.30;;
53666;SDS011;39568;51.026;5.468;2023-03-26T03:06:57;22.25;;;3.63;;
53666;SDS011;39568;51.026;5.468;2023-03-26T03:09:25;17.63;;;3.35;;
53666;SDS011;39568;51.026;5.468;2023-03-26T03:11:51;20.90;;;2.85;;
53666;SDS011;39568;51.026;5.468;2023-03-26T03:14:18;24.85;;;2.70;;
53666;SDS011;39568;51.026;5.468;2023-03-26T03:16:45;17.77;;;2.78;;
53666;SDS011;39568;51.026;5.468;2023-03-26T03:19:13;21.85;;;3.13;;
53666;SDS011;39568;51.026;5.468;2023-03-26T03:21:40;12.63;;;2.63;;
53666;SDS011;39568;51.026;5.468;2023-03-26T03:24:07;29.05;;;2.72;;
53666;SDS011;39568;51.026;5.468;2023-03-26T03:26:35;18.45;;;2.72;;
53666;SDS011;39568;51.026;5.468;2023-03-26T03:29:02;17.40;;;2.65;;
53666;SDS011;39568;51.026;5.468;2023-03-26T03:31:29;20.05;;;3.03;;
53666;SDS011;39568;51.026;5.468;2023-03-26T03:33:56;22.02;;;2.55;;
53666;SDS011;39568;51.026;5.468;2023-03-26T03:36:24;22.55;;;3.58;;
53666;SDS011;39568;51.026;5.468;2023-03-26T03:38:54;14.40;;;2.63;;
53666;SDS011;39568;51.026;5.468;2023-03-26T03:41:26;37.95;;;4.45;;
53666;SDS011;39568;51.026;5.468;2023-03-26T03:43:53;19.02;;;3.85;;
53666;SDS011;39568;51.026;5.468;2023-03-26T03:46:19;21.70;;;3.03;;
53666;SDS011;39568;51.026;5.468;2023-03-26T03:48:46;11.65;;;2.92;;
53666;SDS011;39568;51.026;5.468;2023-03-26T03:51:13;11.40;;;2.45;;
53666;SDS011;39568;51.026;5.468;2023-03-26T03:53:42;20.67;;;3.50;;
53666;SDS011;39568;51.026;5.468;2023-03-26T03:56:10;21.67;;;3.08;;
53666;SDS011;39568;51.026;5.468;2023-03-26T03:58:39;22.27;;;4.43;;
53666;SDS011;39568;51.026;5.468;2023-03-26T04:01:06;22.67;;;3.60;;
53666;SDS011;39568;51.026;5.468;2023-03-26T04:03:33;18.75;;;3.72;;
53666;SDS011;39568;51.026;5.468;2023-03-26T04:06:03;18.08;;;3.05;;
53666;SDS011;39568;51.026;5.468;2023-03-26T04:08:31;15.35;;;2.90;;
53666;SDS011;39568;51.026;5.468;2023-03-26T04:10:59;15.90;;;2.60;;
53666;SDS011;39568;51.026;5.468;2023-03-26T04:13:26;19.40;;;3.08;;
53666;SDS011;39568;51.026;5.468;2023-03-26T04:15:53;14.75;;;3.72;;
53666;SDS011;39568;51.026;5.468;2023-03-26T04:18:20;12.38;;;2.28;;
53666;SDS011;39568;51.026;5.468;2023-03-26T04:20:47;14.45;;;2.90;;
53666;SDS011;39568;51.026;5.468;2023-03-26T04:23:15;29.73;;;3.22;;
53666;SDS011;39568;51.026;5.468;2023-03-26T04:25:43;19.33;;;5.80;;
53666;SDS011;39568;51.026;5.468;2023-03-26T04:28:16;20.77;;;3.80;;
53666;SDS011;39568;51.026;5.468;2023-03-26T04:30:52;8.70;;;2.40;;
53666;SDS011;39568;51.026;5.468;2023-03-26T04:33:19;15.73;;;2.28;;
53666;SDS011;39568;51.026;5.468;2023-03-26T04:35:46;7.70;;;2.88;;
53666;SDS011;39568;51.026;5.468;2023-03-26T04:38:13;11.65;;;2.38;;
53666;SDS011;39568;51.026;5.468;2023-03-26T04:40:42;16.95;;;2.47;;
53666;SDS011;39568;51.026;5.468;2023-03-26T04:43:11;30.05;;;3.95;;
53666;SDS011;39568;51.026;5.468;2023-03-26T04:45:41;19.27;;;2.85;;
53666;SDS011;39568;51.026;5.468;2023-03-26T04:48:10;18.83;;;2.88;;
53666;SDS011;39568;51.026;5.468;2023-03-26T04:50:38;18.60;;;3.00;;
53666;SDS011;39568;51.026;5.468;2023-03-26T04:53:07;20.45;;;3.30;;
53666;SDS011;39568;51.026;5.468;2023-03-26T04:55:38;22.30;;;3.50;;
53666;SDS011;39568;51.026;5.468;2023-03-26T04:58:10;15.70;;;4.10;;
53666;SDS011;39568;51.026;5.468;2023-03-26T05:00:38;22.90;;;3.47;;
53666;SDS011;39568;51.026;5.468;2023-03-26T05:03:09;17.95;;;3.65;;
53666;SDS011;39568;51.026;5.468;2023-03-26T05:05:36;13.90;;;1.97;;
53666;SDS011;39568;51.026;5.468;2023-03-26T05:08:04;18.23;;;3.92;;
53666;SDS011;39568;51.026;5.468;2023-03-26T05:10:31;16.02;;;3.03;;
53666;SDS011;39568;51.026;5.468;2023-03-26T05:12:57;30.00;;;3.58;;
53666;SDS011;39568;51.026;5.468;2023-03-26T05:15:24;14.57;;;2.47;;
53666;SDS011;39568;51.026;5.468;2023-03-26T05:17:51;22.88;;;4.20;;
53666;SDS011;39568;51.026;5.468;2023-03-26T05:20:21;19.13;;;3.05;;
53666;SDS011;39568;51.026;5.468;2023-03-26T05:22:49;23.42;;;3.45;;
53666;SDS011;39568;51.026;5.468;2023-03-26T05:25:16;26.40;;;3.15;;
53666;SDS011;39568;51.026;5.468;2023-03-26T05:27:43;18.55;;;3.13;;
53666;SDS011;39568;51.026;5.468;2023-03-26T05:30:11;12.98;;;2.65;;
53666;SDS011;39568;51.026;5.468;2023-03-26T05:32:39;22.10;;;2.60;;
53666;SDS011;39568;51.026;5.468;2023-03-26T05:35:07;20.40;;;3.33;;
53666;SDS011;39568;51.026;5.468;2023-03-26T05:37:35;13.90;;;3.05;;
53666;SDS011;39568;51.026;5.468;2023-03-26T05:40:03;24.20;;;4.38;;
53666;SDS011;39568;51.026;5.468;2023-03-26T05:42:35;29.85;;;4.05;;
53666;SDS011;39568;51.026;5.468;2023-03-26T05:45:02;18.45;;;3.42;;
53666;SDS011;39568;51.026;5.468;2023-03-26T05:47:29;11.60;;;2.58;;
53666;SDS011;39568;51.026;5.468;2023-03-26T05:49:56;10.52;;;2.38;;
53666;SDS011;39568;51.026;5.468;2023-03-26T05:52:23;11.07;;;3.67;;
53666;SDS011;39568;51.026;5.468;2023-03-26T05:54:51;19.30;;;4.97;;
53666;SDS011;39568;51.026;5.468;2023-03-26T05:57:18;31.60;;;4.93;;
53666;SDS011;39568;51.026;5.468;2023-03-26T05:59:46;10.23;;;2.72;;
53666;SDS011;39568;51.026;5.468;2023-03-26T06:02:13;12.13;;;2.50;;
53666;SDS011;39568;51.026;5.468;2023-03-26T06:04:40;23.15;;;3.10;;
53666;SDS011;39568;51.026;5.468;2023-03-26T06:07:09;17.27;;;3.97;;
53666;SDS011;39568;51.026;5.468;2023-03-26T06:09:36;22.08;;;8.20;;
53666;SDS011;39568;51.026;5.468;2023-03-26T06:12:05;22.80;;;3.38;;
53666;SDS011;39568;51.026;5.468;2023-03-26T06:14:33;14.32;;;3.03;;
53666;SDS011;39568;51.026;5.468;2023-03-26T06:17:00;19.45;;;4.18;;
53666;SDS011;39568;51.026;5.468;2023-03-26T06:19:27;13.30;;;3.17;;
53666;SDS011;39568;51.026;5.468;2023-03-26T06:21:53;27.13;;;3.58;;
53666;SDS011;39568;51.026;5.468;2023-03-26T06:24:20;22.90;;;4.25;;
53666;SDS011;39568;51.026;5.468;2023-03-26T06:26:47;15.40;;;2.42;;
53666;SDS011;39568;51.026;5.468;2023-03-26T06:29:15;22.73;;;4.07;;
53666;SDS011;39568;51.026;5.468;2023-03-26T06:31:42;18.77;;;3.67;;
53666;SDS011;39568;51.026;5.468;2023-03-26T06:34:08;18.33;;;3.95;;
53666;SDS011;39568;51.026;5.468;2023-03-26T06:36:35;21.25;;;4.47;;
53666;SDS011;39568;51.026;5.468;2023-03-26T06:39:02;27.95;;;4.88;;
53666;SDS011;39568;51.026;5.468;2023-03-26T06:41:30;27.77;;;6.45;;
53666;SDS011;39568;51.026;5.468;2023-03-26T06:43:58;11.05;;;4.30;;
53666;SDS011;39568;51.026;5.468;2023-03-26T06:46:26;20.80;;;4.78;;
53666;SDS011;39568;51.026;5.468;2023-03-26T06:48:53;14.93;;;2.55;;
53666;SDS011;39568;51.026;5.468;2023-03-26T06:51:20;24.75;;;3.50;;
53666;SDS011;39568;51.026;5.468;2023-03-26T06:53:46;17.20;;;2.92;;
53666;SDS011;39568;51.026;5.468;2023-03-26T06:56:13;20.55;;;2.63;;
53666;SDS011;39568;51.026;5.468;2023-03-26T06:58:40;30.35;;;3.53;;
53666;SDS011;39568;51.026;5.468;2023-03-26T07:01:06;12.80;;;2.63;;
53666;SDS011;39568;51.026;5.468;2023-03-26T07:03:34;22.48;;;4.05;;
53666;SDS011;39568;51.026;5.468;2023-03-26T07:06:01;5.07;;;1.10;;
53666;SDS011;39568;51.026;5.468;2023-03-26T07:08:28;4.43;;;1.70;;
53666;SDS011;39568;51.026;5.468;2023-03-26T07:10:55;23.02;;;4.18;;
53666;SDS011;39568;51.026;5.468;2023-03-26T07:13:22;19.35;;;3.58;;
53666;SDS011;39568;51.026;5.468;2023-03-26T07:15:49;15.00;;;3.83;;
53666;SDS011;39568;51.026;5.468;2023-03-26T07:18:15;14.05;;;3.78;;
53666;SDS011;39568;51.026;5.468;2023-03-26T07:20:44;22.85;;;6.47;;
53666;SDS011;39568;51.026;5.468;2023-03-26T07:23:11;13.80;;;3.88;;
53666;SDS011;39568;51.026;5.468;2023-03-26T07:25:44;18.45;;;2.92;;
53666;SDS011;39568;51.026;5.468;2023-03-26T07:28:12;9.32;;;2.67;;
53666;SDS011;39568;51.026;5.468;2023-03-26T07:30:51;16.80;;;3.08;;
53666;SDS011;39568;51.026;5.468;2023-03-26T07:33:25;27.75;;;6.88;;
53666;SDS011;39568;51.026;5.468;2023-03-26T07:36:03;18.48;;;4.40;;
53666;SDS011;39568;51.026;5.468;2023-03-26T07:38:41;16.48;;;3.28;;
53666;SDS011;39568;51.026;5.468;2023-03-26T07:41:19;8.18;;;3.20;;
53666;SDS011;39568;51.026;5.468;2023-03-26T07:43:56;12.15;;;3.45;;
53666;SDS011;39568;51.026;5.468;2023-03-26T07:46:31;12.20;;;2.70;;
53666;SDS011;39568;51.026;5.468;2023-03-26T07:49:01;11.63;;;2.33;;
53666;SDS011;39568;51.026;5.468;2023-03-26T07:51:30;10.32;;;2.00;;
53666;SDS011;39568;51.026;5.468;2023-03-26T07:53:58;6.10;;;1.33;;
53666;SDS011;39568;51.026;5.468;2023-03-26T07:56:25;6.32;;;1.50;;
53666;SDS011;39568;51.026;5.468;2023-03-26T07:59:04;12.15;;;1.77;;
53666;SDS011;39568;51.026;5.468;2023-03-26T08:01:41;4.40;;;1.90;;
53666;SDS011;39568;51.026;5.468;2023-03-26T08:04:23;9.70;;;1.42;;
53666;SDS011;39568;51.026;5.468;2023-03-26T08:06:59;11.48;;;1.52;;
53666;SDS011;39568;51.026;5.468;2023-03-26T08:09:31;8.35;;;1.67;;
53666;SDS011;39568;51.026;5.468;2023-03-26T08:12:04;10.93;;;1.65;;
53666;SDS011;39568;51.026;5.468;2023-03-26T08:14:39;15.77;;;1.85;;
53666;SDS011;39568;51.026;5.468;2023-03-26T08:17:13;5.10;;;1.30;;
53666;SDS011;39568;51.026;5.468;2023-03-26T08:22:24;10.63;;;1.60;;
53666;SDS011;39568;51.026;5.468;2023-03-26T08:25:03;6.63;;;1.70;;
53666;SDS011;39568;51.026;5.468;2023-03-26T08:27:42;11.15;;;1.80;;
53666;SDS011;39568;51.026;5.468;2023-03-26T08:30:18;7.57;;;2.35;;
53666;SDS011;39568;51.026;5.468;2023-03-26T08:32:48;6.45;;;1.60;;
53666;SDS011;39568;51.026;5.468;2023-03-26T08:35:19;7.10;;;1.73;;
53666;SDS011;39568;51.026;5.468;2023-03-26T08:37:47;12.30;;;2.05;;
53666;SDS011;39568;51.026;5.468;2023-03-26T08:40:17;5.40;;;1.77;;
53666;SDS011;39568;51.026;5.468;2023-03-26T08:43:08;13.98;;;2.28;;
53666;SDS011;39568;51.026;5.468;2023-03-26T08:45:57;6.88;;;1.58;;
53666;SDS011;39568;51.026;5.468;2023-03-26T08:48:54;6.45;;;1.85;;
53666;SDS011;39568;51.026;5.468;2023-03-26T08:51:40;4.63;;;2.75;;
53666;SDS011;39568;51.026;5.468;2023-03-26T08:54:35;2.47;;;2.28;;
53666;SDS011;39568;51.026;5.468;2023-03-26T09:00:31;5.80;;;1.55;;
53666;SDS011;39568;51.026;5.468;2023-03-26T09:03:24;8.50;;;2.20;;
53666;SDS011;39568;51.026;5.468;2023-03-26T09:06:18;2.55;;;1.33;;
53666;SDS011;39568;51.026;5.468;2023-03-26T09:12:32;12.18;;;1.73;;
53666;SDS011;39568;51.026;5.468;2023-03-26T09:15:28;7.07;;;2.20;;
53666;SDS011;39568;51.026;5.468;2023-03-26T09:18:23;9.77;;;1.88;;
53666;SDS011;39568;51.026;5.468;2023-03-26T09:27:17;3.95;;;0.85;;
53666;SDS011;39568;51.026;5.468;2023-03-26T09:35:54;3.83;;;1.13;;
53666;SDS011;39568;51.026;5.468;2023-03-26T09:38:41;2.22;;;1.25;;
53666;SDS011;39568;51.026;5.468;2023-03-26T09:41:13;1.63;;;1.52;;
53666;SDS011;39568;51.026;5.468;2023-03-26T09:43:53;2.00;;;1.10;;
53666;SDS011;39568;51.026;5.468;2023-03-26T09:46:41;1.70;;;1.20;;
53666;SDS011;39568;51.026;5.468;2023-03-26T09:49:23;5.03;;;1.13;;
53666;SDS011;39568;51.026;5.468;2023-03-26T09:52:13;2.65;;;1.70;;
53666;SDS011;39568;51.026;5.468;2023-03-26T09:54:54;2.35;;;1.30;;
53666;SDS011;39568;51.026;5.468;2023-03-26T09:57:49;0.90;;;0.90;;
53666;SDS011;39568;51.026;5.468;2023-03-26T10:00:27;6.20;;;1.38;;
53666;SDS011;39568;51.026;5.468;2023-03-26T10:03:12;2.60;;;1.23;;
53666;SDS011;39568;51.026;5.468;2023-03-26T10:05:48;3.03;;;1.10;;
53666;SDS011;39568;51.026;5.468;2023-03-26T10:08:26;5.57;;;1.10;;
53666;SDS011;39568;51.026;5.468;2023-03-26T10:11:02;5.00;;;1.38;;
53666;SDS011;39568;51.026;5.468;2023-03-26T10:13:38;4.40;;;1.42;;
53666;SDS011;39568;51.026;5.468;2023-03-26T10:16:19;1.95;;;1.58;;
53666;SDS011;39568;51.026;5.468;2023-03-26T10:18:54;3.50;;;1.17;;
53666;SDS011;39568;51.026;5.468;2023-03-26T10:21:34;2.42;;;0.95;;
53666;SDS011;39568;51.026;5.468;2023-03-26T10:24:18;4.45;;;1.65;;
53666;SDS011;39568;51.026;5.468;2023-03-26T10:26:56;3.58;;;1.52;;
53666;SDS011;39568;51.026;5.468;2023-03-26T10:32:52;2.58;;;1.33;;
53666;SDS011;39568;51.026;5.468;2023-03-26T10:35:27;2.85;;;1.10;;
53666;SDS011;39568;51.026;5.468;2023-03-26T10:38:10;2.45;;;0.63;;
53666;SDS011;39568;51.026;5.468;2023-03-26T10:40:42;3.58;;;1.02;;
53666;SDS011;39568;51.026;5.468;2023-03-26T10:43:27;2.28;;;0.82;;
53666;SDS011;39568;51.026;5.468;2023-03-26T10:46:11;1.08;;;0.93;;
53666;SDS011;39568;51.026;5.468;2023-03-26T10:48:58;6.05;;;1.48;;
53666;SDS011;39568;51.026;5.468;2023-03-26T10:51:43;2.95;;;1.08;;
53666;SDS011;39568;51.026;5.468;2023-03-26T10:54:18;2.72;;;1.05;;
53666;SDS011;39568;51.026;5.468;2023-03-26T10:56:52;2.55;;;1.40;;
53666;SDS011;39568;51.026;5.468;2023-03-26T10:59:20;6.90;;;1.70;;
53666;SDS011;39568;51.026;5.468;2023-03-26T11:01:49;5.72;;;2.67;;
53666;SDS011;39568;51.026;5.468;2023-03-26T11:04:29;7.35;;;2.25;;
53666;SDS011;39568;51.026;5.468;2023-03-26T11:07:06;5.53;;;2.30;;
53666;SDS011;39568;51.026;5.468;2023-03-26T11:09:42;4.80;;;1.73;;
53666;SDS011;39568;51.026;5.468;2023-03-26T11:12:16;3.35;;;1.60;;
53666;SDS011;39568;51.026;5.468;2023-03-26T11:14:52;2.17;;;1.65;;
53666;SDS011;39568;51.026;5.468;2023-03-26T11:17:30;4.00;;;2.58;;
53666;SDS011;39568;51.026;5.468;2023-03-26T11:20:06;7.75;;;3.22;;
53666;SDS011;39568;51.026;5.468;2023-03-26T11:22:41;4.78;;;2.60;;
53666;SDS011;39568;51.026;5.468;2023-03-26T11:25:25;3.03;;;1.50;;
53666;SDS011;39568;51.026;5.468;2023-03-26T11:28:04;1.73;;;1.08;;
53666;SDS011;39568;51.026;5.468;2023-03-26T11:30:39;5.97;;;1.50;;
53666;SDS011;39568;51.026;5.468;2023-03-26T11:33:14;6.22;;;1.50;;
53666;SDS011;39568;51.026;5.468;2023-03-26T11:35:46;4.35;;;1.98;;
53666;SDS011;39568;51.026;5.468;2023-03-26T11:38:16;3.80;;;2.40;;
53666;SDS011;39568;51.026;5.468;2023-03-26T11:40:45;1.90;;;1.77;;
53666;SDS011;39568;51.026;5.468;2023-03-26T11:43:14;5.90;;;2.05;;
53666;SDS011;39568;51.026;5.468;2023-03-26T11:45:46;3.60;;;1.35;;
53666;SDS011;39568;51.026;5.468;2023-03-26T11:48:16;1.52;;;1.42;;
53666;SDS011;39568;51.026;5.468;2023-03-26T11:50:50;2.38;;;1.25;;
53666;SDS011;39568;51.026;5.468;2023-03-26T11:53:22;2.15;;;1.63;;
53666;SDS011;39568;51.026;5.468;2023-03-26T11:55:55;3.08;;;1.15;;
53666;SDS011;39568;51.026;5.468;2023-03-26T11:58:28;3.42;;;1.75;;
53666;SDS011;39568;51.026;5.468;2023-03-26T12:00:57;1.67;;;1.50;;
53666;SDS011;39568;51.026;5.468;2023-03-26T12:03:28;2.40;;;2.10;;
53666;SDS011;39568;51.026;5.468;2023-03-26T12:05:57;2.45;;;2.25;;
53666;SDS011;39568;51.026;5.468;2023-03-26T12:08:27;9.90;;;1.50;;
53666;SDS011;39568;51.026;5.468;2023-03-26T12:10:58;1.98;;;1.80;;
53666;SDS011;39568;51.026;5.468;2023-03-26T12:13:32;5.82;;;1.75;;
53666;SDS011;39568;51.026;5.468;2023-03-26T12:16:03;2.00;;;1.83;;
53666;SDS011;39568;51.026;5.468;2023-03-26T12:18:34;3.22;;;1.25;;
53666;SDS011;39568;51.026;5.468;2023-03-26T12:21:06;5.28;;;1.33;;
53666;SDS011;39568;51.026;5.468;2023-03-26T12:23:36;1.95;;;1.23;;
53666;SDS011;39568;51.026;5.468;2023-03-26T12:26:13;5.30;;;2.75;;
53666;SDS011;39568;51.026;5.468;2023-03-26T12:28:44;4.25;;;1.30;;
53666;SDS011;39568;51.026;5.468;2023-03-26T12:31:13;3.13;;;1.17;;
53666;SDS011;39568;51.026;5.468;2023-03-26T12:33:43;5.05;;;1.10;;
53666;SDS011;39568;51.026;5.468;2023-03-26T12:36:16;2.97;;;2.63;;
53666;SDS011;39568;51.026;5.468;2023-03-26T12:38:47;2.13;;;1.45;;
53666;SDS011;39568;51.026;5.468;2023-03-26T12:41:14;1.42;;;1.33;;
53666;SDS011;39568;51.026;5.468;2023-03-26T12:43:43;3.80;;;1.63;;
53666;SDS011;39568;51.026;5.468;2023-03-26T12:46:24;4.22;;;1.10;;
53666;SDS011;39568;51.026;5.468;2023-03-26T12:48:53;2.58;;;1.20;;
53666;SDS011;39568;51.026;5.468;2023-03-26T12:51:27;2.30;;;2.05;;
53666;SDS011;39568;51.026;5.468;2023-03-26T12:54:11;1.52;;;1.35;;
53666;SDS011;39568;51.026;5.468;2023-03-26T12:56:49;1.77;;;1.65;;
53666;SDS011;39568;51.026;5.468;2023-03-26T12:59:32;2.30;;;1.00;;
53666;SDS011;39568;51.026;5.468;2023-03-26T13:02:15;1.50;;;1.40;;
53666;SDS011;39568;51.026;5.468;2023-03-26T13:05:03;1.10;;;1.00;;
53666;SDS011;39568;51.026;5.468;2023-03-26T13:07:48;3.55;;;1.92;;
53666;SDS011;39568;51.026;5.468;2023-03-26T13:13:20;3.90;;;1.70;;
53666;SDS011;39568;51.026;5.468;2023-03-26T13:16:03;6.82;;;1.48;;
53666;SDS011;39568;51.026;5.468;2023-03-26T13:18:40;2.55;;;1.38;;
53666;SDS011;39568;51.026;5.468;2023-03-26T13:21:13;3.97;;;1.75;;
53666;SDS011;39568;51.026;5.468;2023-03-26T13:23:47;0.90;;;0.90;;
53666;SDS011;39568;51.026;5.468;2023-03-26T13:26:25;1.33;;;1.20;;
53666;SDS011;39568;51.026;5.468;2023-03-26T13:29:03;1.30;;;1.20;;
53666;SDS011;39568;51.026;5.468;2023-03-26T13:31:37;1.50;;;1.40;;
53666;SDS011;39568;51.026;5.468;2023-03-26T13:34:13;2.08;;;1.85;;
53666;SDS011;39568;51.026;5.468;2023-03-26T13:36:49;1.38;;;1.23;;
53666;SDS011;39568;51.026;5.468;2023-03-26T13:39:31;4.13;;;1.50;;
53666;SDS011;39568;51.026;5.468;2023-03-26T13:42:08;2.03;;;1.60;;
53666;SDS011;39568;51.026;5.468;2023-03-26T13:44:48;1.80;;;1.70;;
53666;SDS011;39568;51.026;5.468;2023-03-26T13:47:24;4.25;;;1.63;;
53666;SDS011;39568;51.026;5.468;2023-03-26T13:49:54;2.00;;;1.90;;
53666;SDS011;39568;51.026;5.468;2023-03-26T13:52:24;5.83;;;1.80;;
53666;SDS011;39568;51.026;5.468;2023-03-26T13:57:42;1.20;;;1.20;;
53666;SDS011;39568;51.026;5.468;2023-03-26T14:00:14;1.20;;;1.05;;
53666;SDS011;39568;51.026;5.468;2023-03-26T14:05:15;0.60;;;0.60;;
53666;SDS011;39568;51.026;5.468;2023-03-26T14:07:47;1.02;;;1.00;;
53666;SDS011;39568;51.026;5.468;2023-03-26T14:10:20;0.65;;;0.65;;
53666;SDS011;39568;51.026;5.468;2023-03-26T14:12:53;0.73;;;0.73;;
53666;SDS011;39568;51.026;5.468;2023-03-26T14:15:25;1.13;;;0.82;;
53666;SDS011;39568;51.026;5.468;2023-03-26T14:17:57;1.20;;;1.10;;
53666;SDS011;39568;51.026;5.468;2023-03-26T14:20:38;1.05;;;1.05;;
53666;SDS011;39568;51.026;5.468;2023-03-26T14:23:20;0.93;;;0.93;;
53666;SDS011;39568;51.026;5.468;2023-03-26T14:26:12;1.23;;;1.23;;
53666;SDS011;39568;51.026;5.468;2023-03-26T14:28:52;1.05;;;1.05;;
53666;SDS011;39568;51.026;5.468;2023-03-26T14:31:41;1.60;;;1.50;;
53666;SDS011;39568;51.026;5.468;2023-03-26T14:37:18;1.30;;;1.20;;
53666;SDS011;39568;51.026;5.468;2023-03-26T14:39:56;4.20;;;1.60;;
53666;SDS011;39568;51.026;5.468;2023-03-26T14:42:51;1.48;;;1.38;;
53666;SDS011;39568;51.026;5.468;2023-03-26T14:45:33;1.90;;;1.80;;
53666;SDS011;39568;51.026;5.468;2023-03-26T14:54:21;1.77;;;1.67;;
53666;SDS011;39568;51.026;5.468;2023-03-26T14:56:52;1.77;;;1.67;;
53666;SDS011;39568;51.026;5.468;2023-03-26T15:08:57;2.50;;;2.30;;
53666;SDS011;39568;51.026;5.468;2023-03-26T15:11:50;2.55;;;2.40;;
53666;SDS011;39568;51.026;5.468;2023-03-26T15:14:33;3.25;;;2.92;;
53666;SDS011;39568;51.026;5.468;2023-03-26T15:20:21;7.45;;;3.28;;
53666;SDS011;39568;51.026;5.468;2023-03-26T15:26:22;3.17;;;2.88;;
53666;SDS011;39568;51.026;5.468;2023-03-26T15:29:28;3.10;;;3.00;;
53666;SDS011;39568;51.026;5.468;2023-03-26T15:32:24;3.40;;;3.20;;
53666;SDS011;39568;51.026;5.468;2023-03-26T15:35:27;3.35;;;3.15;;
53666;SDS011;39568;51.026;5.468;2023-03-26T15:38:22;5.45;;;3.05;;
53666;SDS011;39568;51.026;5.468;2023-03-26T15:41:11;3.50;;;3.30;;
53666;SDS011;39568;51.026;5.468;2023-03-26T15:49:48;3.42;;;3.20;;
53666;SDS011;39568;51.026;5.468;2023-03-26T15:52:22;4.00;;;3.80;;
53666;SDS011;39568;51.026;5.468;2023-03-26T15:54:56;4.85;;;4.45;;
53666;SDS011;39568;51.026;5.468;2023-03-26T15:57:31;5.03;;;4.05;;
53666;SDS011;39568;51.026;5.468;2023-03-26T16:00:11;4.43;;;4.13;;
53666;SDS011;39568;51.026;5.468;2023-03-26T16:02:50;3.33;;;3.13;;
53666;SDS011;39568;51.026;5.468;2023-03-26T16:08:38;7.82;;;5.85;;
53666;SDS011;39568;51.026;5.468;2023-03-26T16:11:10;7.47;;;6.25;;
53666;SDS011;39568;51.026;5.468;2023-03-26T16:13:41;8.40;;;5.80;;
53666;SDS011;39568;51.026;5.468;2023-03-26T16:16:16;6.25;;;5.78;;
53666;SDS011;39568;51.026;5.468;2023-03-26T16:18:46;18.60;;;6.80;;
53666;SDS011;39568;51.026;5.468;2023-03-26T16:21:33;22.23;;;7.50;;
53666;SDS011;39568;51.026;5.468;2023-03-26T16:24:17;14.23;;;6.43;;
53666;SDS011;39568;51.026;5.468;2023-03-26T16:26:51;16.33;;;7.50;;